sensor_id;sensor_type;location;lat;lon;timestamp;pressure;altitude;pressure_sealevel;temperature;humidity
10392;BME280;5242;49.244;6.774;2023-03-20T00:06:04;99888.97;;;8.26;nan
10392;BME280;5242;49.244;6.774;2023-03-20T00:14:17;99885.13;;;8.27;nan
10392;BME280;5242;49.244;6.774;2023-03-20T00:22:10;99880.63;;;8.31;nan
10392;BME280;5242;49.244;6.774;2023-03-20T00:30:01;99883.47;;;8.35;nan
10392;BME280;5242;49.244;6.774;2023-03-20T00:37:58;99885.22;;;8.39;nan
10392;BME280;5242;49.244;6.774;2023-03-20T00:45:50;99891.25;;;8.45;nan
10392;BME280;5242;49.244;6.774;2023-03-20T00:53:41;99892.78;;;8.55;nan
10392;BME280;5242;49.244;6.774;2023-03-20T01:01:33;99896.22;;;8.64;nan
10392;BME280;5242;49.244;6.774;2023-03-20T01:09:25;99907.22;;;8.67;nan
10392;BME280;5242;49.244;6.774;2023-03-20T01:17:19;99915.16;;;8.73;nan
10392;BME280;5242;49.244;6.774;2023-03-20T01:25:11;99927.63;;;8.74;nan
10392;BME280;5242;49.244;6.774;2023-03-20T01:33:11;99927.28;;;8.75;nan
10392;BME280;5242;49.244;6.774;2023-03-20T01:41:17;99934.97;;;8.73;nan
10392;BME280;5242;49.244;6.774;2023-03-20T01:57:14;99949.34;;;8.74;nan
10392;BME280;5242;49.244;6.774;2023-03-20T02:05:10;99952.41;;;8.72;nan
10392;BME280;5242;49.244;6.774;2023-03-20T02:13:04;99951.25;;;8.73;nan
10392;BME280;5242;49.244;6.774;2023-03-20T02:54:28;99926.03;;;8.73;nan
10392;BME280;5242;49.244;6.774;2023-03-20T03:02:46;99927.63;;;8.74;nan
10392;BME280;5242;49.244;6.774;2023-03-20T03:10:45;99931.31;;;8.69;nan
10392;BME280;5242;49.244;6.774;2023-03-20T03:18:41;99948.28;;;8.66;nan
10392;BME280;5242;49.244;6.774;2023-03-20T03:26:37;99948.06;;;8.71;nan
10392;BME280;5242;49.244;6.774;2023-03-20T03:34:30;99915.03;;;8.69;nan
10392;BME280;5242;49.244;6.774;2023-03-20T03:42:24;99938.56;;;8.65;nan
10392;BME280;5242;49.244;6.774;2023-03-20T03:50:24;99936.75;;;8.69;nan
10392;BME280;5242;49.244;6.774;2023-03-20T03:58:23;99948.94;;;8.63;nan
10392;BME280;5242;49.244;6.774;2023-03-20T04:06:18;99953.56;;;8.62;nan
10392;BME280;5242;49.244;6.774;2023-03-20T04:14:10;99962.50;;;8.63;nan
10392;BME280;5242;49.244;6.774;2023-03-20T04:22:02;99946.22;;;8.63;nan
10392;BME280;5242;49.244;6.774;2023-03-20T04:29:54;99948.00;;;8.59;nan
10392;BME280;5242;49.244;6.774;2023-03-20T04:37:45;99962.84;;;8.61;nan
10392;BME280;5242;49.244;6.774;2023-03-20T04:45:37;99970.06;;;8.57;nan
10392;BME280;5242;49.244;6.774;2023-03-20T04:53:29;99979.19;;;8.53;nan
10392;BME280;5242;49.244;6.774;2023-03-20T05:01:21;99990.91;;;8.44;nan
10392;BME280;5242;49.244;6.774;2023-03-20T05:09:14;99993.59;;;8.36;nan
10392;BME280;5242;49.244;6.774;2023-03-20T05:17:07;100013.78;;;8.26;nan
10392;BME280;5242;49.244;6.774;2023-03-20T05:24:58;100031.03;;;8.21;nan
10392;BME280;5242;49.244;6.774;2023-03-20T05:32:51;100015.06;;;8.20;nan
10392;BME280;5242;49.244;6.774;2023-03-20T05:40:43;100007.41;;;8.22;nan
10392;BME280;5242;49.244;6.774;2023-03-20T05:48:35;100027.84;;;8.19;nan
10392;BME280;5242;49.244;6.774;2023-03-20T05:56:27;100037.13;;;8.18;nan
10392;BME280;5242;49.244;6.774;2023-03-20T06:04:19;100035.22;;;8.10;nan
10392;BME280;5242;49.244;6.774;2023-03-20T06:12:11;100045.94;;;8.06;nan
10392;BME280;5242;49.244;6.774;2023-03-20T06:20:03;100022.34;;;7.98;nan
10392;BME280;5242;49.244;6.774;2023-03-20T06:27:56;100032.56;;;7.93;nan
10392;BME280;5242;49.244;6.774;2023-03-20T06:35:48;100036.88;;;7.94;nan
10392;BME280;5242;49.244;6.774;2023-03-20T06:43:40;100043.56;;;8.43;nan
10392;BME280;5242;49.244;6.774;2023-03-20T06:51:33;100048.22;;;9.44;nan
10392;BME280;5242;49.244;6.774;2023-03-20T06:59:25;100074.06;;;10.17;nan
10392;BME280;5242;49.244;6.774;2023-03-20T07:07:17;100069.50;;;10.54;nan
10392;BME280;5242;49.244;6.774;2023-03-20T07:15:09;100064.78;;;11.04;nan
10392;BME280;5242;49.244;6.774;2023-03-20T07:23:01;100056.47;;;11.25;nan
10392;BME280;5242;49.244;6.774;2023-03-20T07:30:53;100055.81;;;11.03;nan
10392;BME280;5242;49.244;6.774;2023-03-20T07:38:45;100064.03;;;11.72;nan
10392;BME280;5242;49.244;6.774;2023-03-20T07:46:37;100082.47;;;12.51;nan
10392;BME280;5242;49.244;6.774;2023-03-20T07:54:31;100096.34;;;12.14;nan
10392;BME280;5242;49.244;6.774;2023-03-20T08:02:23;100090.16;;;12.01;nan
10392;BME280;5242;49.244;6.774;2023-03-20T08:10:15;100080.59;;;11.79;nan
10392;BME280;5242;49.244;6.774;2023-03-20T08:18:07;100094.78;;;11.57;nan
10392;BME280;5242;49.244;6.774;2023-03-20T08:25:58;100114.63;;;11.29;nan
10392;BME280;5242;49.244;6.774;2023-03-20T08:33:50;100125.13;;;11.02;nan
10392;BME280;5242;49.244;6.774;2023-03-20T08:41:42;100127.94;;;11.06;nan
10392;BME280;5242;49.244;6.774;2023-03-20T08:49:36;100128.22;;;11.53;nan
10392;BME280;5242;49.244;6.774;2023-03-20T08:57:28;100132.81;;;12.66;nan
10392;BME280;5242;49.244;6.774;2023-03-20T09:05:19;100131.03;;;14.84;nan
10392;BME280;5242;49.244;6.774;2023-03-20T09:13:11;100121.56;;;15.08;nan
10392;BME280;5242;49.244;6.774;2023-03-20T09:21:17;100143.22;;;14.63;nan
10392;BME280;5242;49.244;6.774;2023-03-20T09:29:09;100147.81;;;14.82;nan
10392;BME280;5242;49.244;6.774;2023-03-20T09:37:01;100152.59;;;15.12;nan
10392;BME280;5242;49.244;6.774;2023-03-20T09:45:04;100164.19;;;14.32;nan
10392;BME280;5242;49.244;6.774;2023-03-20T09:53:02;100165.28;;;14.08;nan
10392;BME280;5242;49.244;6.774;2023-03-20T10:00:59;100170.47;;;14.75;nan
10392;BME280;5242;49.244;6.774;2023-03-20T10:08:52;100171.06;;;14.65;nan
10392;BME280;5242;49.244;6.774;2023-03-20T10:25:18;100163.63;;;14.66;nan
10392;BME280;5242;49.244;6.774;2023-03-20T10:33:22;100153.41;;;15.12;nan
10392;BME280;5242;49.244;6.774;2023-03-20T10:41:21;100153.53;;;15.50;nan
10392;BME280;5242;49.244;6.774;2023-03-20T10:49:17;100144.53;;;16.13;nan
10392;BME280;5242;49.244;6.774;2023-03-20T10:57:17;100137.81;;;17.55;nan
10392;BME280;5242;49.244;6.774;2023-03-20T11:05:31;100127.00;;;18.01;nan
10392;BME280;5242;49.244;6.774;2023-03-20T11:13:43;100123.44;;;17.13;nan
10392;BME280;5242;49.244;6.774;2023-03-20T11:21:44;100132.63;;;16.02;nan
10392;BME280;5242;49.244;6.774;2023-03-20T11:29:38;100127.84;;;15.65;nan
10392;BME280;5242;49.244;6.774;2023-03-20T11:37:35;100119.78;;;15.49;nan
10392;BME280;5242;49.244;6.774;2023-03-20T11:45:39;100118.50;;;15.13;nan
10392;BME280;5242;49.244;6.774;2023-03-20T11:53:36;100114.28;;;14.92;nan
10392;BME280;5242;49.244;6.774;2023-03-20T12:01:37;100111.56;;;14.46;nan
10392;BME280;5242;49.244;6.774;2023-03-20T12:09:53;100113.97;;;14.05;nan
10392;BME280;5242;49.244;6.774;2023-03-20T12:17:52;100113.41;;;13.77;nan
10392;BME280;5242;49.244;6.774;2023-03-20T12:25:53;100094.81;;;13.47;nan
10392;BME280;5242;49.244;6.774;2023-03-20T12:34:04;100095.09;;;13.42;nan
10392;BME280;5242;49.244;6.774;2023-03-20T13:23:10;100056.38;;;13.79;nan
10392;BME280;5242;49.244;6.774;2023-03-20T13:39:37;100036.00;;;14.68;nan
10392;BME280;5242;49.244;6.774;2023-03-20T13:47:34;100035.25;;;15.62;nan
10392;BME280;5242;49.244;6.774;2023-03-20T13:55:51;100018.41;;;15.63;nan
10392;BME280;5242;49.244;6.774;2023-03-20T14:03:44;100000.97;;;15.49;nan
10392;BME280;5242;49.244;6.774;2023-03-20T14:11:37;100003.44;;;14.93;nan
10392;BME280;5242;49.244;6.774;2023-03-20T14:19:29;99995.56;;;14.62;nan
10392;BME280;5242;49.244;6.774;2023-03-20T14:27:25;99992.38;;;14.60;nan
10392;BME280;5242;49.244;6.774;2023-03-20T14:36:30;99982.69;;;15.26;nan
10392;BME280;5242;49.244;6.774;2023-03-20T14:44:14;99969.94;;;15.78;nan
10392;BME280;5242;49.244;6.774;2023-03-20T15:00:44;99967.06;;;15.30;nan
10392;BME280;5242;49.244;6.774;2023-03-20T15:08:43;99958.72;;;14.89;nan
10392;BME280;5242;49.244;6.774;2023-03-20T15:16:36;99952.44;;;14.59;nan
10392;BME280;5242;49.244;6.774;2023-03-20T15:24:29;99949.38;;;14.37;nan
10392;BME280;5242;49.244;6.774;2023-03-20T15:32:21;99932.63;;;13.92;nan
10392;BME280;5242;49.244;6.774;2023-03-20T15:40:21;99927.72;;;13.79;nan
10392;BME280;5242;49.244;6.774;2023-03-20T15:48:16;99929.53;;;13.94;nan
10392;BME280;5242;49.244;6.774;2023-03-20T15:56:13;99918.72;;;13.78;nan
10392;BME280;5242;49.244;6.774;2023-03-20T16:04:13;99925.16;;;13.66;nan
10392;BME280;5242;49.244;6.774;2023-03-20T16:12:14;99920.22;;;13.53;nan
10392;BME280;5242;49.244;6.774;2023-03-20T16:20:13;99915.84;;;13.29;nan
10392;BME280;5242;49.244;6.774;2023-03-20T16:28:05;99927.50;;;13.06;nan
10392;BME280;5242;49.244;6.774;2023-03-20T16:35:59;99923.91;;;12.82;nan
10392;BME280;5242;49.244;6.774;2023-03-20T16:43:53;99921.97;;;12.64;nan
10392;BME280;5242;49.244;6.774;2023-03-20T16:51:46;99926.31;;;12.49;nan
10392;BME280;5242;49.244;6.774;2023-03-20T16:59:38;99924.84;;;12.35;nan
10392;BME280;5242;49.244;6.774;2023-03-20T17:07:31;99928.13;;;12.25;nan
10392;BME280;5242;49.244;6.774;2023-03-20T17:15:23;99912.75;;;12.17;nan
10392;BME280;5242;49.244;6.774;2023-03-20T17:23:19;99905.00;;;12.03;nan
10392;BME280;5242;49.244;6.774;2023-03-20T17:31:15;99905.06;;;11.75;nan
10392;BME280;5242;49.244;6.774;2023-03-20T17:39:16;99906.00;;;11.35;nan
10392;BME280;5242;49.244;6.774;2023-03-20T17:47:14;99899.63;;;10.87;nan
10392;BME280;5242;49.244;6.774;2023-03-20T17:55:07;99904.53;;;10.41;nan
10392;BME280;5242;49.244;6.774;2023-03-20T18:02:59;99917.22;;;10.00;nan
10392;BME280;5242;49.244;6.774;2023-03-20T18:10:52;99932.81;;;9.66;nan
10392;BME280;5242;49.244;6.774;2023-03-20T18:18:44;99922.44;;;9.35;nan
10392;BME280;5242;49.244;6.774;2023-03-20T18:26:36;99925.81;;;8.99;nan
10392;BME280;5242;49.244;6.774;2023-03-20T18:34:27;99935.44;;;8.75;nan
10392;BME280;5242;49.244;6.774;2023-03-20T18:42:19;99928.09;;;8.55;nan
10392;BME280;5242;49.244;6.774;2023-03-20T18:50:18;99937.63;;;8.31;nan
10392;BME280;5242;49.244;6.774;2023-03-20T18:58:21;99933.16;;;7.97;nan
10392;BME280;5242;49.244;6.774;2023-03-20T19:06:21;99917.81;;;7.62;nan
10392;BME280;5242;49.244;6.774;2023-03-20T19:14:13;99936.56;;;7.29;nan
10392;BME280;5242;49.244;6.774;2023-03-20T19:22:05;99944.06;;;7.24;nan
10392;BME280;5242;49.244;6.774;2023-03-20T19:30:04;99937.19;;;7.17;nan
10392;BME280;5242;49.244;6.774;2023-03-20T19:37:56;99927.81;;;7.06;nan
10392;BME280;5242;49.244;6.774;2023-03-20T19:45:49;99928.63;;;6.98;nan
10392;BME280;5242;49.244;6.774;2023-03-20T19:53:47;99935.47;;;6.95;nan
10392;BME280;5242;49.244;6.774;2023-03-20T20:01:40;99940.06;;;6.95;nan
10392;BME280;5242;49.244;6.774;2023-03-20T20:09:32;99920.81;;;6.88;nan
10392;BME280;5242;49.244;6.774;2023-03-20T20:17:23;99923.69;;;6.83;nan
10392;BME280;5242;49.244;6.774;2023-03-20T20:25:17;99925.75;;;6.68;nan
10392;BME280;5242;49.244;6.774;2023-03-20T20:33:08;99917.28;;;6.61;nan
10392;BME280;5242;49.244;6.774;2023-03-20T20:41:01;99915.56;;;6.65;nan
10392;BME280;5242;49.244;6.774;2023-03-20T20:48:52;99923.03;;;6.77;nan
10392;BME280;5242;49.244;6.774;2023-03-20T20:56:44;99920.03;;;6.79;nan
10392;BME280;5242;49.244;6.774;2023-03-20T21:04:41;99909.50;;;6.77;nan
10392;BME280;5242;49.244;6.774;2023-03-20T21:12:33;99908.38;;;6.69;nan
10392;BME280;5242;49.244;6.774;2023-03-20T21:20:42;99915.72;;;6.60;nan
10392;BME280;5242;49.244;6.774;2023-03-20T21:28:35;99917.59;;;6.51;nan
10392;BME280;5242;49.244;6.774;2023-03-20T21:36:27;99919.66;;;6.45;nan
10392;BME280;5242;49.244;6.774;2023-03-20T21:44:19;99920.31;;;6.42;nan
10392;BME280;5242;49.244;6.774;2023-03-20T21:52:31;99910.25;;;6.25;nan
10392;BME280;5242;49.244;6.774;2023-03-20T22:00:43;99911.97;;;6.13;nan
10392;BME280;5242;49.244;6.774;2023-03-20T22:08:54;99905.59;;;6.08;nan
10392;BME280;5242;49.244;6.774;2023-03-20T22:17:06;99916.41;;;6.08;nan
10392;BME280;5242;49.244;6.774;2023-03-20T22:25:18;99914.16;;;6.02;nan
10392;BME280;5242;49.244;6.774;2023-03-20T22:33:30;99913.28;;;5.93;nan
10392;BME280;5242;49.244;6.774;2023-03-20T22:41:41;99913.25;;;5.75;nan
10392;BME280;5242;49.244;6.774;2023-03-20T22:49:53;99908.25;;;5.60;nan
10392;BME280;5242;49.244;6.774;2023-03-20T22:57:45;99901.69;;;5.52;nan
10392;BME280;5242;49.244;6.774;2023-03-20T23:05:56;99901.72;;;5.61;nan
10392;BME280;5242;49.244;6.774;2023-03-20T23:13:48;99890.50;;;5.76;nan
10392;BME280;5242;49.244;6.774;2023-03-20T23:21:40;99885.94;;;5.85;nan
10392;BME280;5242;49.244;6.774;2023-03-20T23:29:32;99888.31;;;5.87;nan
10392;BME280;5242;49.244;6.774;2023-03-20T23:37:23;99883.38;;;5.80;nan
10392;BME280;5242;49.244;6.774;2023-03-20T23:45:15;99874.44;;;5.71;nan
10392;BME280;5242;49.244;6.774;2023-03-20T23:53:11;99862.84;;;5.79;nan
